sensor_id;sensor_type;location;lat;lon;timestamp;temperature;humidity
52125;DHT22;38119;52.710;6.398;2023-12-20T00:00:50;6.10;99.90
52125;DHT22;38119;52.710;6.398;2023-12-20T00:03:16;6.10;99.90
52125;DHT22;38119;52.710;6.398;2023-12-20T00:05:42;6.10;99.90
52125;DHT22;38119;52.710;6.398;2023-12-20T00:08:07;6.20;99.90
52125;DHT22;38119;52.710;6.398;2023-12-20T00:10:33;6.20;99.90
52125;DHT22;38119;52.710;6.398;2023-12-20T00:12:58;6.20;99.90
52125;DHT22;38119;52.710;6.398;2023-12-20T00:15:24;6.20;99.90
52125;DHT22;38119;52.710;6.398;2023-12-20T00:17:50;6.20;99.90
52125;DHT22;38119;52.710;6.398;2023-12-20T00:20:15;6.20;99.90
52125;DHT22;38119;52.710;6.398;2023-12-20T00:22:41;6.20;99.90
52125;DHT22;38119;52.710;6.398;2023-12-20T00:25:07;6.20;99.90
52125;DHT22;38119;52.710;6.398;2023-12-20T00:27:32;6.10;99.90
52125;DHT22;38119;52.710;6.398;2023-12-20T00:29:58;6.10;99.90
52125;DHT22;38119;52.710;6.398;2023-12-20T00:32:25;6.10;99.90
52125;DHT22;38119;52.710;6.398;2023-12-20T00:34:50;6.10;99.90
52125;DHT22;38119;52.710;6.398;2023-12-20T00:37:16;6.00;99.90
52125;DHT22;38119;52.710;6.398;2023-12-20T00:39:41;6.00;99.90
52125;DHT22;38119;52.710;6.398;2023-12-20T00:42:07;6.00;99.90
52125;DHT22;38119;52.710;6.398;2023-12-20T00:44:34;6.00;99.90
52125;DHT22;38119;52.710;6.398;2023-12-20T00:46:59;6.10;99.90
52125;DHT22;38119;52.710;6.398;2023-12-20T00:49:28;6.00;99.90
52125;DHT22;38119;52.710;6.398;2023-12-20T00:52:06;6.00;99.90
52125;DHT22;38119;52.710;6.398;2023-12-20T00:54:32;6.00;99.90
52125;DHT22;38119;52.710;6.398;2023-12-20T00:56:58;6.00;99.90
52125;DHT22;38119;52.710;6.398;2023-12-20T00:59:23;6.00;99.90
52125;DHT22;38119;52.710;6.398;2023-12-20T01:01:49;6.00;99.90
52125;DHT22;38119;52.710;6.398;2023-12-20T01:04:15;6.00;99.90
52125;DHT22;38119;52.710;6.398;2023-12-20T01:06:40;6.00;99.90
52125;DHT22;38119;52.710;6.398;2023-12-20T01:09:06;6.00;99.90
52125;DHT22;38119;52.710;6.398;2023-12-20T01:11:32;5.90;99.90
52125;DHT22;38119;52.710;6.398;2023-12-20T01:13:57;6.00;99.90
52125;DHT22;38119;52.710;6.398;2023-12-20T01:16:26;6.00;99.90
52125;DHT22;38119;52.710;6.398;2023-12-20T01:18:52;6.00;99.90
52125;DHT22;38119;52.710;6.398;2023-12-20T01:21:18;6.00;99.90
52125;DHT22;38119;52.710;6.398;2023-12-20T01:23:43;6.00;99.90
52125;DHT22;38119;52.710;6.398;2023-12-20T01:26:09;6.10;99.90
52125;DHT22;38119;52.710;6.398;2023-12-20T01:28:35;6.10;99.90
52125;DHT22;38119;52.710;6.398;2023-12-20T01:31:01;6.10;99.90
52125;DHT22;38119;52.710;6.398;2023-12-20T01:33:27;6.10;99.90
52125;DHT22;38119;52.710;6.398;2023-12-20T01:35:52;6.10;99.90
52125;DHT22;38119;52.710;6.398;2023-12-20T01:38:18;6.10;99.90
52125;DHT22;38119;52.710;6.398;2023-12-20T01:40:44;6.10;99.90
52125;DHT22;38119;52.710;6.398;2023-12-20T01:43:10;6.20;99.90
52125;DHT22;38119;52.710;6.398;2023-12-20T01:45:37;6.20;99.90
52125;DHT22;38119;52.710;6.398;2023-12-20T01:48:04;6.20;99.90
52125;DHT22;38119;52.710;6.398;2023-12-20T01:50:31;6.20;99.90
52125;DHT22;38119;52.710;6.398;2023-12-20T01:52:59;6.20;99.90
52125;DHT22;38119;52.710;6.398;2023-12-20T01:55:27;6.20;99.90
52125;DHT22;38119;52.710;6.398;2023-12-20T01:57:53;6.20;99.90
52125;DHT22;38119;52.710;6.398;2023-12-20T02:00:19;6.20;99.90
52125;DHT22;38119;52.710;6.398;2023-12-20T02:02:50;6.20;99.90
52125;DHT22;38119;52.710;6.398;2023-12-20T02:05:17;6.20;99.90
52125;DHT22;38119;52.710;6.398;2023-12-20T02:07:43;6.20;99.90
52125;DHT22;38119;52.710;6.398;2023-12-20T02:10:09;6.20;99.90
52125;DHT22;38119;52.710;6.398;2023-12-20T02:12:34;6.30;99.90
52125;DHT22;38119;52.710;6.398;2023-12-20T02:15:01;6.30;99.90
52125;DHT22;38119;52.710;6.398;2023-12-20T02:17:27;6.40;99.90
52125;DHT22;38119;52.710;6.398;2023-12-20T02:19:53;6.40;99.90
52125;DHT22;38119;52.710;6.398;2023-12-20T02:22:18;6.40;99.90
52125;DHT22;38119;52.710;6.398;2023-12-20T02:24:44;6.40;99.90
52125;DHT22;38119;52.710;6.398;2023-12-20T02:27:10;6.40;99.90
52125;DHT22;38119;52.710;6.398;2023-12-20T02:29:36;6.40;99.90
52125;DHT22;38119;52.710;6.398;2023-12-20T02:32:02;6.40;99.90
52125;DHT22;38119;52.710;6.398;2023-12-20T02:34:31;6.40;99.90
52125;DHT22;38119;52.710;6.398;2023-12-20T02:36:56;6.40;99.90
52125;DHT22;38119;52.710;6.398;2023-12-20T02:39:22;6.40;99.90
52125;DHT22;38119;52.710;6.398;2023-12-20T02:41:48;6.40;99.90
52125;DHT22;38119;52.710;6.398;2023-12-20T02:44:14;6.40;99.90
52125;DHT22;38119;52.710;6.398;2023-12-20T02:46:40;6.40;99.90
52125;DHT22;38119;52.710;6.398;2023-12-20T02:49:06;6.40;99.90
52125;DHT22;38119;52.710;6.398;2023-12-20T02:51:31;6.40;99.90
52125;DHT22;38119;52.710;6.398;2023-12-20T02:53:57;6.50;99.90
52125;DHT22;38119;52.710;6.398;2023-12-20T02:56:23;6.50;99.90
52125;DHT22;38119;52.710;6.398;2023-12-20T02:58:48;6.40;99.90
52125;DHT22;38119;52.710;6.398;2023-12-20T03:01:14;6.40;99.90
52125;DHT22;38119;52.710;6.398;2023-12-20T03:03:41;6.40;99.90
52125;DHT22;38119;52.710;6.398;2023-12-20T03:06:07;6.40;99.90
52125;DHT22;38119;52.710;6.398;2023-12-20T03:08:32;6.50;99.90
52125;DHT22;38119;52.710;6.398;2023-12-20T03:11:00;6.40;99.90
52125;DHT22;38119;52.710;6.398;2023-12-20T03:13:26;6.50;99.90
52125;DHT22;38119;52.710;6.398;2023-12-20T03:15:57;6.40;99.90
52125;DHT22;38119;52.710;6.398;2023-12-20T03:18:23;7.10;99.90
52125;DHT22;38119;52.710;6.398;2023-12-20T03:20:48;6.50;99.90
52125;DHT22;38119;52.710;6.398;2023-12-20T03:23:16;6.50;99.90
52125;DHT22;38119;52.710;6.398;2023-12-20T03:25:41;6.50;99.90
52125;DHT22;38119;52.710;6.398;2023-12-20T03:28:07;6.50;99.90
52125;DHT22;38119;52.710;6.398;2023-12-20T03:30:34;6.50;99.90
52125;DHT22;38119;52.710;6.398;2023-12-20T03:32:59;6.50;99.90
52125;DHT22;38119;52.710;6.398;2023-12-20T03:35:25;6.50;99.90
52125;DHT22;38119;52.710;6.398;2023-12-20T03:37:51;6.50;99.90
52125;DHT22;38119;52.710;6.398;2023-12-20T03:40:16;6.60;99.90
52125;DHT22;38119;52.710;6.398;2023-12-20T03:42:42;6.60;99.90
52125;DHT22;38119;52.710;6.398;2023-12-20T03:45:08;6.60;99.90
52125;DHT22;38119;52.710;6.398;2023-12-20T03:47:34;6.60;99.90
52125;DHT22;38119;52.710;6.398;2023-12-20T03:49:59;6.60;99.90
52125;DHT22;38119;52.710;6.398;2023-12-20T03:52:25;6.70;99.90
52125;DHT22;38119;52.710;6.398;2023-12-20T03:54:50;6.70;99.90
52125;DHT22;38119;52.710;6.398;2023-12-20T03:57:16;6.70;99.90
52125;DHT22;38119;52.710;6.398;2023-12-20T03:59:42;6.70;99.90
52125;DHT22;38119;52.710;6.398;2023-12-20T04:02:07;6.70;99.90
52125;DHT22;38119;52.710;6.398;2023-12-20T04:04:33;6.70;99.90
52125;DHT22;38119;52.710;6.398;2023-12-20T04:06:59;6.70;99.90
52125;DHT22;38119;52.710;6.398;2023-12-20T04:09:25;6.70;99.90
52125;DHT22;38119;52.710;6.398;2023-12-20T04:11:50;6.70;99.90
52125;DHT22;38119;52.710;6.398;2023-12-20T04:14:16;6.70;99.90
52125;DHT22;38119;52.710;6.398;2023-12-20T04:16:42;6.60;99.90
52125;DHT22;38119;52.710;6.398;2023-12-20T04:19:08;6.60;99.90
52125;DHT22;38119;52.710;6.398;2023-12-20T04:21:33;6.60;99.90
52125;DHT22;38119;52.710;6.398;2023-12-20T04:23:59;6.60;99.90
52125;DHT22;38119;52.710;6.398;2023-12-20T04:26:24;6.60;99.90
52125;DHT22;38119;52.710;6.398;2023-12-20T04:28:50;6.60;99.90
52125;DHT22;38119;52.710;6.398;2023-12-20T04:31:15;6.60;99.90
52125;DHT22;38119;52.710;6.398;2023-12-20T04:33:41;6.70;99.90
52125;DHT22;38119;52.710;6.398;2023-12-20T04:36:06;6.70;99.90
52125;DHT22;38119;52.710;6.398;2023-12-20T04:38:34;6.70;99.90
52125;DHT22;38119;52.710;6.398;2023-12-20T04:41:00;6.80;99.90
52125;DHT22;38119;52.710;6.398;2023-12-20T04:43:25;6.70;99.90
52125;DHT22;38119;52.710;6.398;2023-12-20T04:45:51;6.70;99.90
52125;DHT22;38119;52.710;6.398;2023-12-20T04:48:16;6.70;99.90
52125;DHT22;38119;52.710;6.398;2023-12-20T04:50:42;6.70;99.90
52125;DHT22;38119;52.710;6.398;2023-12-20T04:53:07;6.70;99.90
52125;DHT22;38119;52.710;6.398;2023-12-20T04:55:33;6.70;99.90
52125;DHT22;38119;52.710;6.398;2023-12-20T04:57:58;6.70;99.90
52125;DHT22;38119;52.710;6.398;2023-12-20T05:00:24;6.80;99.90
52125;DHT22;38119;52.710;6.398;2023-12-20T05:02:49;6.80;99.90
52125;DHT22;38119;52.710;6.398;2023-12-20T05:05:15;6.80;99.90
52125;DHT22;38119;52.710;6.398;2023-12-20T05:07:43;6.80;99.90
52125;DHT22;38119;52.710;6.398;2023-12-20T05:10:09;6.80;99.90
52125;DHT22;38119;52.710;6.398;2023-12-20T05:12:34;6.70;99.90
52125;DHT22;38119;52.710;6.398;2023-12-20T05:15:00;6.80;99.90
52125;DHT22;38119;52.710;6.398;2023-12-20T05:17:25;6.80;99.90
52125;DHT22;38119;52.710;6.398;2023-12-20T05:19:51;6.80;99.90
52125;DHT22;38119;52.710;6.398;2023-12-20T05:22:17;6.90;99.90
52125;DHT22;38119;52.710;6.398;2023-12-20T05:24:43;6.90;99.90
52125;DHT22;38119;52.710;6.398;2023-12-20T05:27:09;6.90;99.90
52125;DHT22;38119;52.710;6.398;2023-12-20T05:29:34;7.00;99.90
52125;DHT22;38119;52.710;6.398;2023-12-20T05:32:00;7.00;99.90
52125;DHT22;38119;52.710;6.398;2023-12-20T05:34:25;7.00;99.90
52125;DHT22;38119;52.710;6.398;2023-12-20T05:36:51;7.00;99.90
52125;DHT22;38119;52.710;6.398;2023-12-20T05:39:16;7.00;99.90
52125;DHT22;38119;52.710;6.398;2023-12-20T05:41:42;7.00;99.90
52125;DHT22;38119;52.710;6.398;2023-12-20T05:44:08;7.00;99.90
52125;DHT22;38119;52.710;6.398;2023-12-20T05:46:33;7.10;99.90
52125;DHT22;38119;52.710;6.398;2023-12-20T05:48:59;7.10;99.90
52125;DHT22;38119;52.710;6.398;2023-12-20T05:51:24;7.10;99.90
52125;DHT22;38119;52.710;6.398;2023-12-20T05:53:50;7.10;99.90
52125;DHT22;38119;52.710;6.398;2023-12-20T05:56:16;7.10;99.90
52125;DHT22;38119;52.710;6.398;2023-12-20T05:58:42;7.10;99.90
52125;DHT22;38119;52.710;6.398;2023-12-20T06:01:07;7.10;99.90
52125;DHT22;38119;52.710;6.398;2023-12-20T06:03:34;7.10;99.90
52125;DHT22;38119;52.710;6.398;2023-12-20T06:06:04;7.10;99.90
52125;DHT22;38119;52.710;6.398;2023-12-20T06:08:29;7.10;99.90
52125;DHT22;38119;52.710;6.398;2023-12-20T06:10:55;7.10;99.90
52125;DHT22;38119;52.710;6.398;2023-12-20T06:13:20;7.10;99.90
52125;DHT22;38119;52.710;6.398;2023-12-20T06:15:46;7.20;99.90
52125;DHT22;38119;52.710;6.398;2023-12-20T06:18:11;7.10;99.90
52125;DHT22;38119;52.710;6.398;2023-12-20T06:20:37;7.20;99.90
52125;DHT22;38119;52.710;6.398;2023-12-20T06:23:02;7.20;99.90
52125;DHT22;38119;52.710;6.398;2023-12-20T06:25:28;7.20;99.90
52125;DHT22;38119;52.710;6.398;2023-12-20T06:27:54;7.20;99.90
52125;DHT22;38119;52.710;6.398;2023-12-20T06:30:19;7.20;99.90
52125;DHT22;38119;52.710;6.398;2023-12-20T06:32:45;7.20;99.90
52125;DHT22;38119;52.710;6.398;2023-12-20T06:35:12;7.20;99.90
52125;DHT22;38119;52.710;6.398;2023-12-20T06:37:37;7.20;99.90
52125;DHT22;38119;52.710;6.398;2023-12-20T06:40:09;7.20;99.90
52125;DHT22;38119;52.710;6.398;2023-12-20T06:42:34;7.20;99.90
52125;DHT22;38119;52.710;6.398;2023-12-20T06:45:00;7.20;99.90
52125;DHT22;38119;52.710;6.398;2023-12-20T06:47:26;7.30;99.90
52125;DHT22;38119;52.710;6.398;2023-12-20T06:49:52;7.30;99.90
52125;DHT22;38119;52.710;6.398;2023-12-20T06:52:17;7.30;99.90
52125;DHT22;38119;52.710;6.398;2023-12-20T06:54:43;7.30;99.90
52125;DHT22;38119;52.710;6.398;2023-12-20T06:57:08;7.30;99.90
52125;DHT22;38119;52.710;6.398;2023-12-20T06:59:41;7.30;99.90
52125;DHT22;38119;52.710;6.398;2023-12-20T07:02:08;7.30;99.90
52125;DHT22;38119;52.710;6.398;2023-12-20T07:04:33;7.30;99.90
52125;DHT22;38119;52.710;6.398;2023-12-20T07:06:59;7.30;99.90
52125;DHT22;38119;52.710;6.398;2023-12-20T07:09:26;7.30;99.90
52125;DHT22;38119;52.710;6.398;2023-12-20T07:11:52;7.30;99.90
52125;DHT22;38119;52.710;6.398;2023-12-20T07:14:18;7.30;99.90
52125;DHT22;38119;52.710;6.398;2023-12-20T07:16:43;7.30;99.90
52125;DHT22;38119;52.710;6.398;2023-12-20T07:19:09;7.40;99.90
52125;DHT22;38119;52.710;6.398;2023-12-20T07:21:34;7.40;99.90
52125;DHT22;38119;52.710;6.398;2023-12-20T07:24:00;7.30;99.90
52125;DHT22;38119;52.710;6.398;2023-12-20T07:26:25;7.40;99.90
52125;DHT22;38119;52.710;6.398;2023-12-20T07:28:51;7.30;99.90
52125;DHT22;38119;52.710;6.398;2023-12-20T07:31:16;7.40;99.90
52125;DHT22;38119;52.710;6.398;2023-12-20T07:33:42;7.40;99.90
52125;DHT22;38119;52.710;6.398;2023-12-20T07:36:08;7.40;99.90
52125;DHT22;38119;52.710;6.398;2023-12-20T07:38:34;7.40;99.90
52125;DHT22;38119;52.710;6.398;2023-12-20T07:41:00;7.50;99.90
52125;DHT22;38119;52.710;6.398;2023-12-20T07:43:25;7.40;99.90
52125;DHT22;38119;52.710;6.398;2023-12-20T07:45:51;7.40;99.90
52125;DHT22;38119;52.710;6.398;2023-12-20T07:48:16;7.40;99.90
52125;DHT22;38119;52.710;6.398;2023-12-20T07:50:42;7.70;99.90
52125;DHT22;38119;52.710;6.398;2023-12-20T07:53:08;7.50;99.90
52125;DHT22;38119;52.710;6.398;2023-12-20T07:55:34;7.40;99.90
52125;DHT22;38119;52.710;6.398;2023-12-20T07:58:00;7.50;99.90
52125;DHT22;38119;52.710;6.398;2023-12-20T08:00:26;7.40;99.90
52125;DHT22;38119;52.710;6.398;2023-12-20T08:02:51;7.40;99.90
52125;DHT22;38119;52.710;6.398;2023-12-20T08:05:17;7.40;99.90
52125;DHT22;38119;52.710;6.398;2023-12-20T08:07:43;7.50;99.90
52125;DHT22;38119;52.710;6.398;2023-12-20T08:10:08;7.40;99.90
52125;DHT22;38119;52.710;6.398;2023-12-20T08:12:34;7.40;99.90
52125;DHT22;38119;52.710;6.398;2023-12-20T08:15:00;7.40;99.90
52125;DHT22;38119;52.710;6.398;2023-12-20T08:17:26;8.10;99.90
52125;DHT22;38119;52.710;6.398;2023-12-20T08:19:52;7.40;99.90
52125;DHT22;38119;52.710;6.398;2023-12-20T08:22:17;7.50;99.90
52125;DHT22;38119;52.710;6.398;2023-12-20T08:24:43;7.50;99.90
52125;DHT22;38119;52.710;6.398;2023-12-20T08:27:08;7.50;99.90
52125;DHT22;38119;52.710;6.398;2023-12-20T08:29:35;7.50;99.90
52125;DHT22;38119;52.710;6.398;2023-12-20T08:32:01;7.60;99.90
52125;DHT22;38119;52.710;6.398;2023-12-20T08:34:27;7.60;99.90
52125;DHT22;38119;52.710;6.398;2023-12-20T08:36:52;7.60;99.90
52125;DHT22;38119;52.710;6.398;2023-12-20T08:39:18;7.60;99.90
52125;DHT22;38119;52.710;6.398;2023-12-20T08:41:43;7.60;99.90
52125;DHT22;38119;52.710;6.398;2023-12-20T08:44:09;7.70;99.90
52125;DHT22;38119;52.710;6.398;2023-12-20T08:46:35;7.70;99.90
52125;DHT22;38119;52.710;6.398;2023-12-20T08:49:02;7.70;99.90
52125;DHT22;38119;52.710;6.398;2023-12-20T08:51:28;7.70;99.90
52125;DHT22;38119;52.710;6.398;2023-12-20T08:53:54;7.70;99.90
52125;DHT22;38119;52.710;6.398;2023-12-20T08:56:20;7.70;99.90
52125;DHT22;38119;52.710;6.398;2023-12-20T08:58:48;7.70;99.90
52125;DHT22;38119;52.710;6.398;2023-12-20T09:01:14;7.70;99.90
52125;DHT22;38119;52.710;6.398;2023-12-20T09:03:40;7.80;99.90
52125;DHT22;38119;52.710;6.398;2023-12-20T09:06:06;7.80;99.90
52125;DHT22;38119;52.710;6.398;2023-12-20T09:08:32;7.80;99.90
52125;DHT22;38119;52.710;6.398;2023-12-20T09:10:57;7.80;99.90
52125;DHT22;38119;52.710;6.398;2023-12-20T09:13:23;7.80;99.90
52125;DHT22;38119;52.710;6.398;2023-12-20T09:15:57;7.90;99.90
52125;DHT22;38119;52.710;6.398;2023-12-20T09:18:23;7.90;99.90
52125;DHT22;38119;52.710;6.398;2023-12-20T09:20:49;7.90;99.90
52125;DHT22;38119;52.710;6.398;2023-12-20T09:23:14;7.90;99.90
52125;DHT22;38119;52.710;6.398;2023-12-20T09:25:40;7.90;99.90
52125;DHT22;38119;52.710;6.398;2023-12-20T09:28:05;7.90;99.90
52125;DHT22;38119;52.710;6.398;2023-12-20T09:30:31;7.90;99.90
52125;DHT22;38119;52.710;6.398;2023-12-20T09:32:57;7.90;99.90
52125;DHT22;38119;52.710;6.398;2023-12-20T09:35:23;7.90;99.90
52125;DHT22;38119;52.710;6.398;2023-12-20T09:37:48;7.90;99.90
52125;DHT22;38119;52.710;6.398;2023-12-20T09:40:18;7.90;99.90
52125;DHT22;38119;52.710;6.398;2023-12-20T09:42:58;7.90;99.90
52125;DHT22;38119;52.710;6.398;2023-12-20T09:45:27;7.90;99.90
52125;DHT22;38119;52.710;6.398;2023-12-20T09:47:53;8.00;99.90
52125;DHT22;38119;52.710;6.398;2023-12-20T09:50:22;8.00;99.90
52125;DHT22;38119;52.710;6.398;2023-12-20T09:52:52;8.00;99.90
52125;DHT22;38119;52.710;6.398;2023-12-20T09:55:19;8.10;99.90
52125;DHT22;38119;52.710;6.398;2023-12-20T09:57:48;8.10;99.90
52125;DHT22;38119;52.710;6.398;2023-12-20T10:00:15;8.10;99.90
52125;DHT22;38119;52.710;6.398;2023-12-20T10:02:52;8.20;99.90
52125;DHT22;38119;52.710;6.398;2023-12-20T10:05:29;8.20;99.90
52125;DHT22;38119;52.710;6.398;2023-12-20T10:07:55;8.10;99.90
52125;DHT22;38119;52.710;6.398;2023-12-20T10:10:22;8.00;99.90
52125;DHT22;38119;52.710;6.398;2023-12-20T10:13:09;8.00;99.90
52125;DHT22;38119;52.710;6.398;2023-12-20T10:15:36;7.80;99.90
52125;DHT22;38119;52.710;6.398;2023-12-20T10:18:02;7.60;99.90
52125;DHT22;38119;52.710;6.398;2023-12-20T10:20:28;7.50;99.90
52125;DHT22;38119;52.710;6.398;2023-12-20T10:22:58;7.40;99.90
52125;DHT22;38119;52.710;6.398;2023-12-20T10:25:24;7.40;99.90
52125;DHT22;38119;52.710;6.398;2023-12-20T10:28:08;7.30;99.90
52125;DHT22;38119;52.710;6.398;2023-12-20T10:30:33;7.20;99.90
52125;DHT22;38119;52.710;6.398;2023-12-20T10:32:59;7.20;99.90
52125;DHT22;38119;52.710;6.398;2023-12-20T10:35:25;7.20;99.90
52125;DHT22;38119;52.710;6.398;2023-12-20T10:37:55;7.20;99.90
52125;DHT22;38119;52.710;6.398;2023-12-20T10:40:22;7.20;99.90
52125;DHT22;38119;52.710;6.398;2023-12-20T10:42:48;7.20;99.90
52125;DHT22;38119;52.710;6.398;2023-12-20T10:45:16;7.20;99.90
52125;DHT22;38119;52.710;6.398;2023-12-20T10:47:44;7.20;99.90
52125;DHT22;38119;52.710;6.398;2023-12-20T10:50:11;7.20;99.90
52125;DHT22;38119;52.710;6.398;2023-12-20T10:52:37;7.20;99.90
52125;DHT22;38119;52.710;6.398;2023-12-20T10:55:04;7.20;99.90
52125;DHT22;38119;52.710;6.398;2023-12-20T10:57:30;7.20;99.90
52125;DHT22;38119;52.710;6.398;2023-12-20T11:00:00;7.10;99.90
52125;DHT22;38119;52.710;6.398;2023-12-20T11:02:27;7.10;99.90
52125;DHT22;38119;52.710;6.398;2023-12-20T11:05:06;7.10;99.90
52125;DHT22;38119;52.710;6.398;2023-12-20T11:07:41;7.10;99.90
52125;DHT22;38119;52.710;6.398;2023-12-20T11:10:18;7.10;99.90
52125;DHT22;38119;52.710;6.398;2023-12-20T11:13:01;7.10;99.90
52125;DHT22;38119;52.710;6.398;2023-12-20T11:15:30;7.00;99.90
52125;DHT22;38119;52.710;6.398;2023-12-20T11:17:56;7.00;99.90
52125;DHT22;38119;52.710;6.398;2023-12-20T11:20:23;7.00;99.90
52125;DHT22;38119;52.710;6.398;2023-12-20T11:22:53;6.90;99.90
52125;DHT22;38119;52.710;6.398;2023-12-20T11:25:20;6.90;99.90
52125;DHT22;38119;52.710;6.398;2023-12-20T11:28:09;6.90;99.90
52125;DHT22;38119;52.710;6.398;2023-12-20T11:30:53;7.00;99.90
52125;DHT22;38119;52.710;6.398;2023-12-20T11:33:26;7.00;99.90
52125;DHT22;38119;52.710;6.398;2023-12-20T11:35:55;7.00;99.90
52125;DHT22;38119;52.710;6.398;2023-12-20T11:38:21;7.00;99.90
52125;DHT22;38119;52.710;6.398;2023-12-20T11:40:50;7.00;99.90
52125;DHT22;38119;52.710;6.398;2023-12-20T11:43:34;7.00;99.90
52125;DHT22;38119;52.710;6.398;2023-12-20T11:46:05;7.00;99.90
52125;DHT22;38119;52.710;6.398;2023-12-20T11:48:40;7.00;99.90
52125;DHT22;38119;52.710;6.398;2023-12-20T11:51:10;7.00;99.90
52125;DHT22;38119;52.710;6.398;2023-12-20T11:53:36;7.00;99.90
52125;DHT22;38119;52.710;6.398;2023-12-20T11:56:03;7.00;99.90
52125;DHT22;38119;52.710;6.398;2023-12-20T11:58:29;7.00;99.90
52125;DHT22;38119;52.710;6.398;2023-12-20T12:00:55;7.00;99.90
52125;DHT22;38119;52.710;6.398;2023-12-20T12:03:20;7.00;99.90
52125;DHT22;38119;52.710;6.398;2023-12-20T12:05:47;7.00;99.90
52125;DHT22;38119;52.710;6.398;2023-12-20T12:08:14;7.00;99.90
52125;DHT22;38119;52.710;6.398;2023-12-20T12:10:39;6.90;99.90
52125;DHT22;38119;52.710;6.398;2023-12-20T12:13:05;6.90;99.90
52125;DHT22;38119;52.710;6.398;2023-12-20T12:15:30;6.90;99.90
52125;DHT22;38119;52.710;6.398;2023-12-20T12:17:57;6.90;99.90
52125;DHT22;38119;52.710;6.398;2023-12-20T12:20:23;6.90;99.90
52125;DHT22;38119;52.710;6.398;2023-12-20T12:25:29;6.80;99.90
52125;DHT22;38119;52.710;6.398;2023-12-20T12:27:59;6.80;99.90
52125;DHT22;38119;52.710;6.398;2023-12-20T12:30:25;6.80;99.90
52125;DHT22;38119;52.710;6.398;2023-12-20T12:32:52;6.80;99.90
52125;DHT22;38119;52.710;6.398;2023-12-20T12:35:18;6.80;99.90
52125;DHT22;38119;52.710;6.398;2023-12-20T12:37:44;6.80;99.90
52125;DHT22;38119;52.710;6.398;2023-12-20T12:40:11;6.80;99.90
52125;DHT22;38119;52.710;6.398;2023-12-20T12:42:37;6.80;99.90
52125;DHT22;38119;52.710;6.398;2023-12-20T12:45:04;6.80;99.90
52125;DHT22;38119;52.710;6.398;2023-12-20T12:47:30;6.90;99.90
52125;DHT22;38119;52.710;6.398;2023-12-20T12:49:57;6.90;99.90
52125;DHT22;38119;52.710;6.398;2023-12-20T12:52:22;6.90;99.90
52125;DHT22;38119;52.710;6.398;2023-12-20T12:54:48;6.90;99.90
52125;DHT22;38119;52.710;6.398;2023-12-20T12:57:15;6.90;99.90
52125;DHT22;38119;52.710;6.398;2023-12-20T12:59:42;6.90;99.90
52125;DHT22;38119;52.710;6.398;2023-12-20T13:02:07;6.90;99.90
52125;DHT22;38119;52.710;6.398;2023-12-20T13:04:33;6.90;99.90
52125;DHT22;38119;52.710;6.398;2023-12-20T13:06:59;6.80;99.90
52125;DHT22;38119;52.710;6.398;2023-12-20T13:09:24;6.80;99.90
52125;DHT22;38119;52.710;6.398;2023-12-20T13:11:50;6.80;99.90
52125;DHT22;38119;52.710;6.398;2023-12-20T13:14:16;6.80;99.90
52125;DHT22;38119;52.710;6.398;2023-12-20T13:16:42;6.80;99.90
52125;DHT22;38119;52.710;6.398;2023-12-20T13:19:08;6.80;99.90
52125;DHT22;38119;52.710;6.398;2023-12-20T13:21:34;6.70;99.90
52125;DHT22;38119;52.710;6.398;2023-12-20T13:23:59;6.70;99.90
52125;DHT22;38119;52.710;6.398;2023-12-20T13:26:25;6.70;99.90
52125;DHT22;38119;52.710;6.398;2023-12-20T13:28:50;6.70;99.90
52125;DHT22;38119;52.710;6.398;2023-12-20T13:31:16;6.80;99.90
52125;DHT22;38119;52.710;6.398;2023-12-20T13:33:41;6.80;99.90
52125;DHT22;38119;52.710;6.398;2023-12-20T13:36:07;6.80;99.90
52125;DHT22;38119;52.710;6.398;2023-12-20T13:38:33;6.70;99.90
52125;DHT22;38119;52.710;6.398;2023-12-20T13:40:58;6.70;99.90
52125;DHT22;38119;52.710;6.398;2023-12-20T13:43:24;6.70;99.90
52125;DHT22;38119;52.710;6.398;2023-12-20T13:45:50;6.70;99.90
52125;DHT22;38119;52.710;6.398;2023-12-20T13:48:16;6.80;99.90
52125;DHT22;38119;52.710;6.398;2023-12-20T13:50:42;6.80;99.90
52125;DHT22;38119;52.710;6.398;2023-12-20T13:53:08;6.70;99.90
52125;DHT22;38119;52.710;6.398;2023-12-20T13:55:33;6.70;99.90
52125;DHT22;38119;52.710;6.398;2023-12-20T13:57:59;6.70;99.90
52125;DHT22;38119;52.710;6.398;2023-12-20T14:00:24;6.80;99.90
52125;DHT22;38119;52.710;6.398;2023-12-20T14:02:50;6.80;99.90
52125;DHT22;38119;52.710;6.398;2023-12-20T14:05:16;6.80;99.90
52125;DHT22;38119;52.710;6.398;2023-12-20T14:07:43;6.80;99.90
52125;DHT22;38119;52.710;6.398;2023-12-20T14:10:13;6.80;99.90
52125;DHT22;38119;52.710;6.398;2023-12-20T14:12:39;6.80;99.90
52125;DHT22;38119;52.710;6.398;2023-12-20T14:15:05;6.90;99.90
52125;DHT22;38119;52.710;6.398;2023-12-20T14:17:37;6.90;99.90
52125;DHT22;38119;52.710;6.398;2023-12-20T14:20:04;6.90;99.90
52125;DHT22;38119;52.710;6.398;2023-12-20T14:22:31;6.90;99.90
52125;DHT22;38119;52.710;6.398;2023-12-20T14:24:57;6.90;99.90
52125;DHT22;38119;52.710;6.398;2023-12-20T14:27:23;7.00;99.90
52125;DHT22;38119;52.710;6.398;2023-12-20T14:29:51;7.00;99.90
52125;DHT22;38119;52.710;6.398;2023-12-20T14:32:17;7.00;99.90
52125;DHT22;38119;52.710;6.398;2023-12-20T14:34:43;7.10;99.90
52125;DHT22;38119;52.710;6.398;2023-12-20T14:37:09;7.10;99.90
52125;DHT22;38119;52.710;6.398;2023-12-20T14:39:34;7.20;99.90
52125;DHT22;38119;52.710;6.398;2023-12-20T14:42:04;7.30;99.90
52125;DHT22;38119;52.710;6.398;2023-12-20T14:44:30;7.30;99.90
52125;DHT22;38119;52.710;6.398;2023-12-20T14:46:57;7.40;99.90
52125;DHT22;38119;52.710;6.398;2023-12-20T14:49:22;7.40;99.90
52125;DHT22;38119;52.710;6.398;2023-12-20T14:51:48;7.40;99.90
52125;DHT22;38119;52.710;6.398;2023-12-20T14:54:14;7.50;99.90
52125;DHT22;38119;52.710;6.398;2023-12-20T14:56:43;7.50;99.90
52125;DHT22;38119;52.710;6.398;2023-12-20T14:59:12;7.50;99.90
52125;DHT22;38119;52.710;6.398;2023-12-20T15:01:37;7.50;99.90
52125;DHT22;38119;52.710;6.398;2023-12-20T15:04:06;7.50;99.90
52125;DHT22;38119;52.710;6.398;2023-12-20T15:06:32;7.50;99.90
52125;DHT22;38119;52.710;6.398;2023-12-20T15:08:59;7.60;99.90
52125;DHT22;38119;52.710;6.398;2023-12-20T15:11:25;7.60;99.90
52125;DHT22;38119;52.710;6.398;2023-12-20T15:13:52;7.60;99.90
52125;DHT22;38119;52.710;6.398;2023-12-20T15:16:20;7.60;99.90
52125;DHT22;38119;52.710;6.398;2023-12-20T15:18:46;7.60;99.90
52125;DHT22;38119;52.710;6.398;2023-12-20T15:21:11;7.70;99.90
52125;DHT22;38119;52.710;6.398;2023-12-20T15:23:37;7.70;99.90
52125;DHT22;38119;52.710;6.398;2023-12-20T15:26:06;7.70;99.90
52125;DHT22;38119;52.710;6.398;2023-12-20T15:28:34;7.70;99.90
52125;DHT22;38119;52.710;6.398;2023-12-20T15:31:04;7.60;99.90
52125;DHT22;38119;52.710;6.398;2023-12-20T15:33:32;6.90;99.90
52125;DHT22;38119;52.710;6.398;2023-12-20T15:35:57;7.60;99.90
52125;DHT22;38119;52.710;6.398;2023-12-20T15:38:25;7.60;99.90
52125;DHT22;38119;52.710;6.398;2023-12-20T15:40:52;7.60;99.90
52125;DHT22;38119;52.710;6.398;2023-12-20T15:43:18;7.60;99.90